Time;durP1;ratioP1;P1;durP2;ratioP2;P2;SDS_P1;SDS_P2;PMS_P1;PMS_P2;Temp;Humidity;BMP_temperature;BMP_pressure;BME280_temperature;BME280_humidity;BME280_pressure;Samples;Min_cycle;Max_cycle;Signal;HPM_P1;HPM_P2
2022/08/30 00:03:17;;;;;;;9.23;3.08;;;;;;;18.87;73.48;100539.47;5048037;28;20031;-71
2022/08/30 00:05:42;;;;;;;9.18;3.63;;;;;;;18.75;74.44;100539.44;5052930;28;20389;-71
2022/08/30 00:08:08;;;;;;;14.10;3.30;;;;;;;18.74;74.43;100530.16;4995069;28;20025;-71
2022/08/30 00:10:33;;;;;;;10.07;3.15;;;;;;;18.68;74.95;100531.53;5055169;28;20037;-71
2022/08/30 00:12:59;;;;;;;9.65;3.13;;;;;;;18.69;74.35;100526.72;5048462;28;20067;-71
2022/08/30 00:15:25;;;;;;;8.02;3.25;;;;;;;18.61;75.23;100530.44;5055910;28;20497;-71
2022/08/30 00:17:50;;;;;;;9.35;3.67;;;;;;;18.57;75.26;100535.97;5032294;28;20056;-71
2022/08/30 00:20:18;;;;;;;10.70;3.38;;;;;;;18.64;73.87;100532.59;5042311;28;20445;-71
2022/08/30 00:22:44;;;;;;;9.68;3.00;;;;;;;18.64;74.20;100533.41;5039725;28;20051;-71
2022/08/30 00:25:09;;;;;;;8.88;2.75;;;;;;;18.58;74.34;100534.78;5055079;28;20052;-71
2022/08/30 00:27:35;;;;;;;9.68;3.17;;;;;;;18.56;74.53;100533.50;5039379;28;20025;-71
2022/08/30 00:30:01;;;;;;;8.43;3.15;;;;;;;18.47;75.05;100530.75;5064620;28;20085;-71
2022/08/30 00:32:26;;;;;;;7.25;3.17;;;;;;;18.48;74.55;100527.63;5042047;28;20401;-71
2022/08/30 00:34:52;;;;;;;9.77;3.10;;;;;;;18.41;75.35;100527.34;5056156;28;20060;-71
2022/08/30 00:37:18;;;;;;;9.75;3.53;;;;;;;18.36;75.78;100526.75;5034953;28;20127;-71
2022/08/30 00:39:44;;;;;;;10.32;3.10;;;;;;;18.35;75.27;100522.31;5036166;28;20088;-71
2022/08/30 00:42:11;;;;;;;10.50;3.53;;;;;;;18.31;76.11;100522.19;5028790;28;20065;-71
2022/08/30 00:44:37;;;;;;;12.15;3.70;;;;;;;18.30;75.90;100526.16;5057436;28;20037;-71
2022/08/30 00:47:02;;;;;;;12.73;3.67;;;;;;;18.26;76.14;100525.19;5054560;28;20419;-71
2022/08/30 00:49:28;;;;;;;8.80;3.08;;;;;;;18.27;75.67;100524.84;5029696;28;20029;-71
2022/08/30 00:51:54;;;;;;;9.43;3.50;;;;;;;18.24;76.46;100530.34;5006533;28;20116;-71
2022/08/30 00:54:19;;;;;;;10.07;3.22;;;;;;;18.23;76.47;100531.53;5049328;28;20385;-71
2022/08/30 00:56:45;;;;;;;10.10;3.45;;;;;;;18.25;75.84;100530.00;5049281;28;20040;-71
2022/08/30 00:59:11;;;;;;;10.82;3.67;;;;;;;18.24;75.94;100527.53;5056014;28;20124;-71
2022/08/30 01:01:36;;;;;;;8.05;3.33;;;;;;;18.23;75.10;100525.91;5047237;28;20087;-71
2022/08/30 01:04:03;;;;;;;6.78;3.08;;;;;;;18.27;74.76;100529.66;5053531;28;20096;-71
2022/08/30 01:06:28;;;;;;;7.93;3.10;;;;;;;18.23;75.61;100526.72;5053774;28;20025;-71
2022/08/30 01:08:54;;;;;;;9.38;2.97;;;;;;;18.20;75.66;100529.41;5055706;28;20032;-71
2022/08/30 01:11:22;;;;;;;8.90;3.03;;;;;;;18.15;75.68;100536.06;5039079;28;20029;-71
2022/08/30 01:13:47;;;;;;;9.60;3.28;;;;;;;18.24;74.44;100538.78;5055866;28;20064;-71
2022/08/30 01:16:13;;;;;;;9.88;3.65;;;;;;;18.23;74.91;100545.56;5031582;28;20033;-71
2022/08/30 01:18:38;;;;;;;10.05;3.17;;;;;;;18.20;75.01;100537.84;5020793;28;20367;-71
2022/08/30 01:21:14;;;;;;;10.07;3.13;;;;;;;18.18;74.88;100545.78;5035735;28;20520;-71
2022/08/30 01:23:41;;;;;;;9.05;3.10;;;;;;;18.15;74.78;100540.84;5055109;28;20114;-71
2022/08/30 01:26:06;;;;;;;6.13;2.92;;;;;;;18.12;75.15;100541.53;5020309;28;20033;-71
2022/08/30 01:28:32;;;;;;;11.68;3.05;;;;;;;18.09;75.32;100538.25;5048461;28;20028;-71
2022/08/30 01:30:58;;;;;;;8.43;3.00;;;;;;;18.04;75.78;100532.03;5022373;28;20170;-71
2022/08/30 01:33:23;;;;;;;7.75;3.13;;;;;;;18.01;75.87;100539.16;5038618;28;20040;-71
2022/08/30 01:35:58;;;;;;;8.43;3.30;;;;;;;17.99;75.37;100533.03;5054319;28;20112;-71
2022/08/30 01:38:25;;;;;;;8.02;2.75;;;;;;;17.91;76.02;100525.50;5025901;28;20029;-71
2022/08/30 01:40:56;;;;;;;9.07;2.85;;;;;;;17.93;75.89;100528.81;5048133;28;20029;-71
2022/08/30 01:43:21;;;;;;;11.48;2.90;;;;;;;17.96;75.09;100533.72;5051232;28;20071;-71
2022/08/30 01:45:47;;;;;;;9.75;3.35;;;;;;;17.90;76.18;100537.09;5051639;28;20037;-71
2022/08/30 01:48:13;;;;;;;7.70;2.95;;;;;;;17.93;74.86;100534.41;5049295;28;20034;-71
2022/08/30 01:50:40;;;;;;;8.48;3.10;;;;;;;17.91;75.03;100533.94;5053920;28;20032;-71
2022/08/30 01:53:05;;;;;;;8.30;3.20;;;;;;;17.89;75.36;100529.84;5046691;28;20029;-71
2022/08/30 01:55:31;;;;;;;7.10;2.72;;;;;;;17.88;75.52;100534.63;5034322;28;20556;-71
2022/08/30 01:57:56;;;;;;;9.32;3.22;;;;;;;17.92;74.74;100537.59;5030020;28;20079;-71
2022/08/30 02:00:22;;;;;;;10.98;3.25;;;;;;;17.89;74.76;100544.72;5051880;28;20021;-71
2022/08/30 02:02:48;;;;;;;8.45;3.38;;;;;;;17.85;74.90;100541.75;5049839;28;20057;-71
2022/08/30 02:05:13;;;;;;;10.05;2.75;;;;;;;17.85;74.85;100547.38;5052472;28;20029;-71
2022/08/30 02:07:39;;;;;;;11.23;3.28;;;;;;;17.78;75.53;100544.28;5032857;28;20037;-71
2022/08/30 02:10:04;;;;;;;9.05;2.80;;;;;;;17.80;74.72;100535.50;5016939;28;20034;-71
2022/08/30 02:12:30;;;;;;;11.70;3.63;;;;;;;17.79;75.16;100542.31;5021936;28;20029;-71
2022/08/30 02:14:55;;;;;;;8.07;3.20;;;;;;;17.74;75.12;100543.28;5053793;28;20033;-71
2022/08/30 02:17:21;;;;;;;14.40;3.22;;;;;;;17.75;75.24;100541.31;5026579;28;20025;-71
2022/08/30 02:19:46;;;;;;;8.18;3.10;;;;;;;17.74;75.33;100545.28;5018806;28;20025;-71
2022/08/30 02:22:12;;;;;;;8.43;2.78;;;;;;;17.78;74.79;100541.50;5046420;28;20048;-71
2022/08/30 02:24:37;;;;;;;5.72;3.00;;;;;;;17.74;74.94;100548.09;5055761;28;20145;-71
2022/08/30 02:27:03;;;;;;;11.45;2.92;;;;;;;17.71;75.04;100545.97;5036273;28;20048;-71
2022/08/30 02:29:29;;;;;;;11.15;3.00;;;;;;;17.69;75.10;100548.28;5021199;28;20083;-71
2022/08/30 02:31:54;;;;;;;9.65;3.17;;;;;;;17.69;75.43;100551.94;5038108;28;20088;-71
2022/08/30 02:34:20;;;;;;;6.50;2.90;;;;;;;17.65;75.34;100534.09;5054232;28;20044;-71
2022/08/30 02:36:45;;;;;;;7.88;2.95;;;;;;;17.65;75.03;100534.09;5037288;28;21387;-71
2022/08/30 02:39:11;;;;;;;11.07;3.45;;;;;;;17.65;75.48;100543.34;5050176;28;20032;-71
2022/08/30 02:41:37;;;;;;;13.85;3.45;;;;;;;17.67;75.06;100536.59;5053747;28;20447;-71
2022/08/30 02:44:04;;;;;;;8.52;2.85;;;;;;;17.60;75.24;100537.94;5054868;28;20033;-71
2022/08/30 02:46:29;;;;;;;9.10;3.40;;;;;;;17.58;75.56;100529.03;5033572;28;20112;-71
2022/08/30 02:48:55;;;;;;;12.75;3.60;;;;;;;17.57;75.21;100538.63;5052887;28;20044;-71
2022/08/30 02:51:20;;;;;;;9.82;3.20;;;;;;;17.55;75.37;100535.34;5054337;28;20041;-71
2022/08/30 02:53:45;;;;;;;6.28;2.70;;;;;;;17.55;75.03;100529.72;5055277;28;20037;-71
2022/08/30 02:56:12;;;;;;;9.82;2.88;;;;;;;17.50;75.61;100527.13;5052705;28;20113;-71
2022/08/30 02:58:37;;;;;;;9.90;3.17;;;;;;;17.51;75.50;100530.75;5053993;28;20049;-71
2022/08/30 03:01:04;;;;;;;7.53;3.00;;;;;;;17.48;75.84;100535.06;5037842;28;20384;-71
2022/08/30 03:03:30;;;;;;;7.35;2.80;;;;;;;17.48;75.63;100529.44;5038928;28;20056;-71
2022/08/30 03:05:56;;;;;;;5.95;2.72;;;;;;;17.54;75.11;100533.69;5037328;28;20029;-71
2022/08/30 03:08:21;;;;;;;6.47;3.05;;;;;;;17.53;75.05;100531.22;5050695;28;20512;-71
2022/08/30 03:10:47;;;;;;;9.05;3.13;;;;;;;17.55;74.45;100532.53;5050417;28;20421;-71
2022/08/30 03:13:12;;;;;;;8.65;3.28;;;;;;;17.49;75.12;100525.44;5052694;28;20099;-71
2022/08/30 03:15:38;;;;;;;9.40;3.25;;;;;;;17.50;74.69;100529.94;5049449;28;20037;-71
2022/08/30 03:18:04;;;;;;;6.32;2.95;;;;;;;17.56;73.89;100534.19;5038019;28;20033;-71
2022/08/30 03:20:29;;;;;;;8.18;3.20;;;;;;;17.50;74.62;100523.50;5052034;28;20102;-71
2022/08/30 03:22:55;;;;;;;7.07;3.40;;;;;;;17.57;73.67;100523.75;5035137;28;20033;-71
2022/08/30 03:25:21;;;;;;;6.78;3.00;;;;;;;17.60;73.24;100529.50;5059091;28;20029;-71
2022/08/30 03:27:46;;;;;;;6.47;3.05;;;;;;;17.62;72.70;100523.56;5046199;28;20037;-71
2022/08/30 03:30:12;;;;;;;5.15;2.70;;;;;;;17.69;72.41;100517.38;5055835;28;20448;-71
2022/08/30 03:32:38;;;;;;;6.50;3.10;;;;;;;17.70;72.09;100521.88;5064397;28;20061;-71
2022/08/30 03:35:04;;;;;;;7.07;2.70;;;;;;;17.74;71.58;100520.00;5057415;28;20025;-71
2022/08/30 03:37:29;;;;;;;5.13;2.80;;;;;;;17.73;71.56;100522.00;5039144;28;20466;-71
2022/08/30 03:39:55;;;;;;;7.13;2.88;;;;;;;17.69;72.08;100523.00;5057070;28;20036;-71
2022/08/30 03:42:20;;;;;;;7.30;3.00;;;;;;;17.72;72.00;100522.31;5040741;28;20035;-71
2022/08/30 03:44:46;;;;;;;5.78;3.10;;;;;;;17.73;71.32;100515.56;5023581;28;20024;-71
2022/08/30 03:47:11;;;;;;;5.47;2.47;;;;;;;17.72;71.21;100505.47;5047666;28;20448;-71
2022/08/30 03:49:37;;;;;;;6.07;2.67;;;;;;;17.71;71.42;100510.28;5057997;28;20033;-71
2022/08/30 03:52:03;;;;;;;6.25;3.22;;;;;;;17.63;71.91;100509.19;5058087;28;20029;-71
2022/08/30 03:54:28;;;;;;;6.07;2.92;;;;;;;17.64;71.59;100510.81;5050228;28;20481;-71
2022/08/30 03:56:54;;;;;;;5.55;2.55;;;;;;;17.68;71.09;100512.94;5046372;28;20072;-71
2022/08/30 03:59:20;;;;;;;6.18;3.10;;;;;;;17.60;71.98;100515.47;5038003;28;20037;-71
2022/08/30 04:01:46;;;;;;;6.28;2.95;;;;;;;17.62;71.63;100509.53;5053551;28;20040;-71
2022/08/30 04:04:12;;;;;;;8.68;2.95;;;;;;;17.49;73.26;100508.59;5048412;28;20523;-71
2022/08/30 04:06:37;;;;;;;10.35;3.60;;;;;;;17.46;72.91;100506.50;5056446;28;20113;-71
2022/08/30 04:09:03;;;;;;;7.55;3.30;;;;;;;17.54;72.15;100513.22;5040405;28;20025;-71
2022/08/30 04:11:28;;;;;;;5.03;2.55;;;;;;;17.56;71.93;100514.50;5052066;28;20064;-71
2022/08/30 04:13:55;;;;;;;6.65;3.00;;;;;;;17.59;71.48;100510.22;5057220;28;20077;-71
2022/08/30 04:16:21;;;;;;;5.47;2.55;;;;;;;17.62;71.10;100520.75;5054996;28;20029;-71
2022/08/30 04:18:47;;;;;;;4.60;2.65;;;;;;;17.65;70.89;100523.69;5051397;28;20052;-71
2022/08/30 04:21:12;;;;;;;7.15;2.88;;;;;;;17.62;70.69;100524.38;5018996;28;20051;-71
2022/08/30 04:23:38;;;;;;;5.78;2.40;;;;;;;17.63;70.52;100520.44;5056517;28;20029;-71
2022/08/30 04:26:03;;;;;;;5.90;2.78;;;;;;;17.63;70.20;100520.44;5039433;28;20039;-71
2022/08/30 04:28:29;;;;;;;4.78;2.60;;;;;;;17.64;70.00;100524.88;5055256;28;20120;-71
2022/08/30 04:30:54;;;;;;;5.35;2.78;;;;;;;17.65;69.98;100529.31;5056566;28;20474;-71
2022/08/30 04:33:20;;;;;;;6.05;2.55;;;;;;;17.63;69.75;100536.44;5050806;28;20035;-71
2022/08/30 04:35:47;;;;;;;7.07;2.60;;;;;;;17.61;69.93;100539.59;5057422;28;20035;-71
2022/08/30 04:38:13;;;;;;;4.75;2.90;;;;;;;17.59;70.15;100535.47;5045777;28;20039;-71
2022/08/30 04:40:42;;;;;;;5.70;2.70;;;;;;;17.56;70.00;100534.19;5050856;28;20085;-71
2022/08/30 04:43:08;;;;;;;10.85;3.17;;;;;;;17.54;70.22;100542.09;5059220;28;20047;-71
2022/08/30 04:45:34;;;;;;;6.18;3.08;;;;;;;17.47;70.67;100530.59;5057536;28;20449;-71
2022/08/30 04:47:59;;;;;;;5.72;3.00;;;;;;;17.44;70.90;100536.91;5019675;28;20552;-71
2022/08/30 04:50:24;;;;;;;8.02;2.92;;;;;;;17.42;71.19;100550.44;5055960;28;20052;-71
2022/08/30 04:52:50;;;;;;;5.45;2.95;;;;;;;17.40;70.92;100544.34;5052751;28;20040;-71
2022/08/30 04:55:15;;;;;;;6.63;2.90;;;;;;;17.40;70.79;100538.72;5039009;28;20447;-71
2022/08/30 04:57:42;;;;;;;7.47;3.25;;;;;;;17.36;71.46;100541.41;5038365;28;20069;-71
2022/08/30 05:00:10;;;;;;;7.03;2.90;;;;;;;17.21;72.05;100541.97;5037222;28;20466;-71
2022/08/30 05:02:36;;;;;;;7.82;2.97;;;;;;;17.22;72.06;100548.41;5049704;28;20485;-71
2022/08/30 05:07:46;;;;;;;5.25;2.92;;;;;;;17.19;72.03;100555.53;5046134;28;20039;-71
2022/08/30 05:10:12;;;;;;;6.43;2.80;;;;;;;17.19;72.49;100556.34;5038505;28;20041;-71
2022/08/30 05:12:38;;;;;;;7.63;3.55;;;;;;;17.12;72.48;100553.25;5053834;28;20382;-71
2022/08/30 05:15:04;;;;;;;6.80;3.20;;;;;;;17.10;72.51;100555.56;5055551;28;20071;-71
2022/08/30 05:17:29;;;;;;;7.40;3.08;;;;;;;17.09;72.29;100559.53;5022254;28;20033;-71
2022/08/30 05:19:55;;;;;;;6.72;3.22;;;;;;;17.10;72.43;100563.97;5051440;28;20045;-71
2022/08/30 05:22:20;;;;;;;8.20;3.10;;;;;;;17.11;71.88;100564.81;5049084;28;20523;-71
2022/08/30 05:24:46;;;;;;;7.70;2.75;;;;;;;17.08;71.95;100566.31;5056810;28;20040;-71
2022/08/30 05:27:11;;;;;;;7.35;3.13;;;;;;;17.12;71.82;100563.66;5037881;28;20090;-71
2022/08/30 05:29:37;;;;;;;5.30;2.92;;;;;;;17.10;71.59;100569.59;5052791;28;20044;-71
2022/08/30 05:32:02;;;;;;;7.07;3.30;;;;;;;17.08;71.89;100576.72;5019011;28;20044;-71
2022/08/30 05:34:31;;;;;;;7.45;2.90;;;;;;;17.07;71.96;100583.47;5038131;28;20037;-71
2022/08/30 05:36:56;;;;;;;5.88;2.70;;;;;;;17.07;71.77;100578.69;5021350;28;20527;-71
2022/08/30 05:39:22;;;;;;;7.53;2.90;;;;;;;17.05;72.13;100583.81;5034982;28;20030;-71
2022/08/30 05:41:47;;;;;;;6.72;2.90;;;;;;;17.07;71.78;100587.09;5055200;28;20029;-71
2022/08/30 05:44:13;;;;;;;7.60;3.10;;;;;;;17.09;71.24;100596.00;5055151;28;20059;-71
2022/08/30 05:46:41;;;;;;;6.30;3.15;;;;;;;17.08;71.31;100588.75;5052593;28;20037;-71
2022/08/30 05:49:07;;;;;;;7.07;2.88;;;;;;;17.11;71.15;100606.91;5048221;28;20029;-71
2022/08/30 05:51:33;;;;;;;6.47;2.45;;;;;;;17.09;71.01;100607.22;5055278;28;20025;-71
2022/08/30 05:53:59;;;;;;;6.45;2.78;;;;;;;17.05;71.12;100597.00;5054766;28;20137;-71
2022/08/30 05:56:27;;;;;;;5.75;3.10;;;;;;;17.04;71.46;100604.59;5055516;28;20064;-71
2022/08/30 05:58:53;;;;;;;6.07;2.97;;;;;;;17.02;71.45;100611.72;5035038;28;20422;-71
2022/08/30 06:01:22;;;;;;;6.72;2.88;;;;;;;17.02;71.35;100615.38;5050770;28;20032;-72
2022/08/30 06:03:48;;;;;;;7.35;3.00;;;;;;;17.01;71.30;100622.09;5055881;28;20033;-71
2022/08/30 06:06:13;;;;;;;4.90;2.80;;;;;;;17.05;71.33;100613.84;5056020;28;20051;-71
2022/08/30 06:08:39;;;;;;;6.38;3.15;;;;;;;17.06;71.08;100609.91;5049378;28;20041;-71
2022/08/30 06:11:04;;;;;;;5.50;2.78;;;;;;;17.04;71.06;100617.81;5054870;28;20025;-71
2022/08/30 06:13:31;;;;;;;7.05;2.88;;;;;;;17.02;71.31;100620.97;5049901;28;20048;-71
2022/08/30 06:15:56;;;;;;;7.90;2.97;;;;;;;17.07;71.31;100626.38;5038038;28;20078;-71
2022/08/30 06:18:22;;;;;;;6.97;3.55;;;;;;;17.02;71.23;100626.59;5045863;28;20044;-71
2022/08/30 06:20:47;;;;;;;9.88;2.97;;;;;;;17.04;71.60;100635.47;5049348;28;20079;-71
2022/08/30 06:23:16;;;;;;;7.60;2.72;;;;;;;17.04;71.35;100638.28;5056129;28;20365;-71
2022/08/30 06:25:42;;;;;;;7.80;2.92;;;;;;;17.06;71.61;100630.34;5052322;28;20079;-71
2022/08/30 06:28:08;;;;;;;8.98;2.80;;;;;;;17.03;73.21;100627.41;5018072;28;20026;-71
2022/08/30 06:30:33;;;;;;;10.52;3.45;;;;;;;17.05;73.56;100633.47;5037931;28;20119;-71
2022/08/30 06:32:59;;;;;;;8.77;3.22;;;;;;;17.04;73.84;100629.84;5038039;28;20025;-71
2022/08/30 06:35:25;;;;;;;7.40;3.05;;;;;;;17.12;72.54;100633.78;5036128;28;20037;-71
2022/08/30 06:37:51;;;;;;;7.18;3.13;;;;;;;17.14;74.00;100631.50;5030078;28;20029;-71
2022/08/30 06:40:18;;;;;;;6.20;3.30;;;;;;;17.22;75.92;100641.00;5027646;28;20389;-71
2022/08/30 06:42:44;;;;;;;11.65;3.60;;;;;;;17.31;75.05;100642.66;5054486;28;20032;-71
2022/08/30 06:45:09;;;;;;;7.63;3.50;;;;;;;17.41;75.13;100638.63;5055749;28;20058;-71
2022/08/30 06:47:35;;;;;;;10.57;3.75;;;;;;;17.52;75.05;100637.09;5055092;28;20055;-71
2022/08/30 06:50:00;;;;;;;10.98;3.38;;;;;;;17.62;74.18;100642.31;5059708;28;20036;-71
2022/08/30 06:52:26;;;;;;;8.45;3.00;;;;;;;17.76;73.61;100647.69;5055981;28;20051;-71
2022/08/30 06:54:53;;;;;;;8.52;3.70;;;;;;;17.90;74.30;100649.47;5022275;28;20040;-71
2022/08/30 06:57:18;;;;;;;12.07;3.67;;;;;;;18.03;72.74;100652.03;5036864;28;20053;-71
2022/08/30 06:59:44;;;;;;;9.02;2.97;;;;;;;18.19;72.61;100655.06;5058459;28;20082;-71
2022/08/30 07:02:09;;;;;;;9.27;3.33;;;;;;;18.33;71.69;100642.72;5052567;28;20408;-71
2022/08/30 07:04:35;;;;;;;9.48;3.35;;;;;;;18.47;71.56;100649.72;5056248;28;20029;-71
2022/08/30 07:07:00;;;;;;;11.32;3.47;;;;;;;18.66;70.07;100656.81;5058437;28;20025;-71
2022/08/30 07:09:26;;;;;;;8.55;3.45;;;;;;;18.78;69.80;100659.72;5059201;28;20040;-71
2022/08/30 07:11:51;;;;;;;10.00;4.05;;;;;;;18.88;69.84;100650.81;5059242;28;20033;-71
2022/08/30 07:14:17;;;;;;;11.75;4.05;;;;;;;18.98;69.06;100653.22;5041386;28;20052;-71
2022/08/30 07:16:43;;;;;;;5.88;3.40;;;;;;;19.09;68.13;100655.59;5057525;28;20030;-71
2022/08/30 07:19:09;;;;;;;8.48;3.80;;;;;;;19.23;67.90;100652.47;5055783;28;20025;-71
2022/08/30 07:21:37;;;;;;;11.25;3.97;;;;;;;19.37;67.33;100655.75;5049474;28;20354;-71
2022/08/30 07:24:03;;;;;;;10.07;3.50;;;;;;;19.55;67.10;100661.97;5057030;28;20032;-71
2022/08/30 07:26:40;;;;;;;9.85;3.13;;;;;;;19.70;65.98;100664.16;5045072;28;20108;-71
2022/08/30 07:29:05;;;;;;;8.10;3.10;;;;;;;19.88;65.96;100667.53;5036294;28;20038;-71
2022/08/30 07:31:33;;;;;;;8.00;3.38;;;;;;;20.07;64.18;100666.94;5040869;28;20018;-71
2022/08/30 07:34:00;;;;;;;7.95;3.38;;;;;;;20.18;63.91;100665.25;5036710;28;20105;-71
2022/08/30 07:36:26;;;;;;;7.72;3.30;;;;;;;20.36;63.44;100671.44;5037842;28;20108;-71
2022/08/30 07:38:53;;;;;;;10.82;3.50;;;;;;;20.55;63.56;100665.19;5022721;28;20079;-71
2022/08/30 07:41:21;;;;;;;8.70;3.30;;;;;;;20.74;62.45;100671.00;5023448;28;20033;-71
2022/08/30 07:43:46;;;;;;;6.40;3.17;;;;;;;20.88;62.04;100670.59;5040468;28;20439;-71
2022/08/30 07:46:12;;;;;;;11.10;3.20;;;;;;;21.01;60.80;100674.19;5058691;28;20029;-71
2022/08/30 07:48:38;;;;;;;12.13;3.30;;;;;;;21.18;59.97;100673.84;5056184;28;20082;-71
2022/08/30 07:51:03;;;;;;;8.02;3.20;;;;;;;21.26;58.87;100674.84;5057295;28;20033;-71
2022/08/30 07:53:29;;;;;;;7.35;3.08;;;;;;;21.43;58.75;100676.53;5037826;28;20091;-71
2022/08/30 07:55:55;;;;;;;7.70;3.40;;;;;;;21.55;59.01;100676.44;5036690;28;20041;-71
2022/08/30 07:58:20;;;;;;;7.05;3.35;;;;;;;21.70;58.37;100671.13;5023586;28;20068;-71
2022/08/30 08:00:46;;;;;;;8.77;3.72;;;;;;;21.85;58.24;100668.31;5036966;28;20029;-71
2022/08/30 08:03:11;;;;;;;6.88;3.13;;;;;;;22.00;57.29;100663.81;5057509;28;20600;-71
2022/08/30 08:05:42;;;;;;;10.13;3.60;;;;;;;22.14;56.88;100673.81;5040449;28;20061;-71
2022/08/30 08:08:08;;;;;;;9.68;3.47;;;;;;;22.26;56.36;100677.38;5036550;28;20025;-71
2022/08/30 08:10:35;;;;;;;8.38;3.10;;;;;;;22.48;55.74;100677.84;5058351;28;20131;-71
2022/08/30 08:13:01;;;;;;;5.80;3.35;;;;;;;22.61;55.68;100676.50;5056843;28;20550;-71
2022/08/30 08:15:27;;;;;;;11.32;3.47;;;;;;;22.71;55.49;100675.09;5054660;28;20040;-71
2022/08/30 08:17:52;;;;;;;7.70;3.53;;;;;;;22.83;54.75;100679.78;5019105;28;20024;-71
2022/08/30 08:20:18;;;;;;;8.50;3.30;;;;;;;23.00;55.04;100682.19;5033258;28;20028;-71
2022/08/30 08:22:43;;;;;;;8.60;3.33;;;;;;;23.17;55.38;100683.72;5056076;28;20033;-71
2022/08/30 08:25:08;;;;;;;9.25;3.80;;;;;;;23.31;53.56;100686.00;5057110;28;20037;-71
2022/08/30 08:27:34;;;;;;;7.28;3.20;;;;;;;23.45;52.97;100674.09;5048280;28;20378;-70
2022/08/30 08:29:59;;;;;;;8.88;3.25;;;;;;;23.50;53.10;100679.47;5057831;28;20029;-69
2022/08/30 08:32:25;;;;;;;8.73;3.05;;;;;;;23.63;54.22;100680.91;5049769;28;20040;-70
2022/08/30 08:34:50;;;;;;;10.15;3.30;;;;;;;23.73;53.06;100680.28;5036728;28;20029;-70
2022/08/30 08:37:17;;;;;;;8.35;3.10;;;;;;;23.86;52.11;100681.72;5052580;28;20037;-70
2022/08/30 08:39:43;;;;;;;7.68;3.13;;;;;;;24.09;51.24;100680.84;5050354;28;20031;-69
2022/08/30 08:42:14;;;;;;;8.18;3.33;;;;;;;24.28;51.67;100683.56;5039834;28;20641;-69
2022/08/30 08:44:49;;;;;;;8.52;3.22;;;;;;;24.43;51.81;100687.47;5056574;28;20061;-69
2022/08/30 08:47:15;;;;;;;7.43;3.35;;;;;;;24.60;51.21;100694.59;5038793;28;20033;-70
2022/08/30 08:49:43;;;;;;;8.80;3.60;;;;;;;24.68;50.58;100689.81;5039435;28;20535;-70
2022/08/30 08:54:59;;;;;;;6.78;3.08;;;;;;;24.87;49.74;100689.66;5041491;28;20114;-69
2022/08/30 08:57:33;;;;;;;7.93;3.42;;;;;;;24.98;49.04;100693.44;5019280;28;20605;-69
2022/08/30 08:59:59;;;;;;;5.80;3.17;;;;;;;25.22;49.13;100696.19;5032679;28;20508;-70
2022/08/30 09:02:30;;;;;;;7.03;3.53;;;;;;;25.25;48.65;100695.38;5016994;28;20036;-69
2022/08/30 09:04:59;;;;;;;6.00;3.08;;;;;;;25.36;48.46;100697.13;5038793;28;20025;-69
2022/08/30 09:07:29;;;;;;;12.48;3.60;;;;;;;25.47;48.58;100696.44;5020555;28;20049;-69
2022/08/30 09:09:56;;;;;;;7.80;3.38;;;;;;;25.57;47.93;100695.69;5015290;28;20103;-70
2022/08/30 09:12:21;;;;;;;7.32;3.60;;;;;;;25.60;47.27;100690.06;5039217;28;20057;-70
2022/08/30 09:14:50;;;;;;;12.10;3.85;;;;;;;25.66;47.13;100692.50;5020882;28;20094;-70
2022/08/30 09:17:17;;;;;;;6.95;3.42;;;;;;;25.81;47.06;100691.44;5034662;28;20031;-70
2022/08/30 09:19:44;;;;;;;9.88;3.35;;;;;;;25.92;46.87;100689.53;5035494;28;20026;-70
2022/08/30 09:22:45;;;;;;;6.53;3.08;;;;;;;26.00;47.55;100685.53;5002480;28;20112;-70
2022/08/30 09:25:24;;;;;;;7.50;3.50;;;;;;;26.17;46.72;100681.16;5075232;28;20031;-69
2022/08/30 09:27:51;;;;;;;6.78;3.22;;;;;;;26.20;46.65;100688.09;5077186;28;20050;-70
2022/08/30 09:30:23;;;;;;;7.68;3.42;;;;;;;26.28;45.90;100693.44;5077426;28;20039;-70
2022/08/30 09:32:57;;;;;;;9.95;3.50;;;;;;;26.39;45.82;100684.97;5044230;28;20182;-70
2022/08/30 09:35:23;;;;;;;6.85;3.20;;;;;;;26.51;46.18;100676.09;5043864;28;20098;-70
2022/08/30 09:37:56;;;;;;;8.70;3.25;;;;;;;26.58;45.69;100680.19;5052241;28;20028;-70
2022/08/30 09:40:44;;;;;;;7.47;3.15;;;;;;;26.76;45.37;100681.09;5077502;28;20114;-69
2022/08/30 09:43:18;;;;;;;7.47;3.28;;;;;;;26.88;45.05;100682.75;5059969;28;20062;-69
2022/08/30 09:45:46;;;;;;;11.63;3.35;;;;;;;26.93;44.55;100680.34;5073929;28;20082;-69
2022/08/30 09:48:28;;;;;;;5.95;3.17;;;;;;;27.06;44.92;100686.50;5077312;28;20541;-70
2022/08/30 09:51:01;;;;;;;7.80;3.53;;;;;;;27.19;45.70;100681.25;5073916;28;20029;-70
2022/08/30 09:53:31;;;;;;;8.35;3.15;;;;;;;27.31;44.92;100683.72;5067107;28;20062;-70
2022/08/30 09:56:09;;;;;;;9.73;3.40;;;;;;;27.43;44.52;100690.28;5053944;28;20036;-70
2022/08/30 09:58:52;;;;;;;6.85;3.22;;;;;;;27.55;44.38;100690.69;5044732;28;20041;-69
2022/08/30 10:01:28;;;;;;;8.00;3.10;;;;;;;27.60;43.81;100701.69;5034474;28;20034;-70
2022/08/30 10:04:05;;;;;;;8.23;3.25;;;;;;;27.65;43.36;100696.81;5021922;28;20037;-70
2022/08/30 10:06:36;;;;;;;10.52;3.42;;;;;;;27.72;44.02;100697.63;5021021;28;20060;-70
2022/08/30 10:09:26;;;;;;;6.88;3.10;;;;;;;27.85;43.43;100687.44;5001125;28;20040;-70
2022/08/30 10:11:58;;;;;;;7.55;3.25;;;;;;;27.94;42.77;100692.75;5038176;28;20677;-70
2022/08/30 10:14:42;;;;;;;6.25;3.13;;;;;;;28.07;43.33;100685.41;5037914;28;20037;-70
2022/08/30 10:17:20;;;;;;;6.70;3.20;;;;;;;28.17;43.40;100694.38;5048470;28;20025;-70
2022/08/30 10:19:57;;;;;;;8.48;3.58;;;;;;;28.28;42.01;100690.28;5051275;28;20082;-70
2022/08/30 10:22:41;;;;;;;6.57;3.28;;;;;;;28.33;42.32;100693.91;5044826;28;20444;-69
2022/08/30 10:25:18;;;;;;;7.53;3.40;;;;;;;28.41;42.18;100679.19;5054203;28;20068;-70
2022/08/30 10:27:49;;;;;;;6.43;3.00;;;;;;;28.50;41.74;100684.50;5019060;28;20080;-70
2022/08/30 10:30:14;;;;;;;7.57;3.00;;;;;;;28.50;41.94;100675.94;5038071;28;20116;-72
2022/08/30 10:32:46;;;;;;;9.15;3.53;;;;;;;28.62;41.72;100675.50;5021033;28;20029;-72
2022/08/30 10:35:15;;;;;;;8.55;3.38;;;;;;;28.62;42.00;100681.22;5019554;28;20112;-72
2022/08/30 10:38:02;;;;;;;4.85;3.10;;;;;;;28.68;42.23;100679.56;5036898;28;20051;-72
2022/08/30 10:43:23;;;;;;;11.05;3.40;;;;;;;28.93;41.64;100679.44;5026638;28;20036;-72
2022/08/30 10:45:49;;;;;;;7.88;3.15;;;;;;;29.12;41.90;100674.47;5002371;28;20033;-72
2022/08/30 10:48:18;;;;;;;6.35;3.35;;;;;;;29.21;41.42;100674.00;5030939;28;20084;-72
2022/08/30 10:50:47;;;;;;;8.00;3.60;;;;;;;29.24;41.21;100667.44;5054509;28;20040;-72
2022/08/30 10:53:15;;;;;;;5.45;3.17;;;;;;;29.36;41.05;100666.94;5021311;28;20025;-72
2022/08/30 10:55:45;;;;;;;9.90;3.50;;;;;;;29.55;40.77;100669.25;5036582;28;20033;-72
2022/08/30 10:58:11;;;;;;;7.00;3.30;;;;;;;29.72;41.22;100672.44;5044479;28;20045;-72
2022/08/30 11:01:00;;;;;;;4.35;2.65;;;;;;;29.86;41.58;100672.31;5021137;28;20037;-72
2022/08/30 11:03:38;;;;;;;7.45;3.30;;;;;;;29.86;40.45;100672.31;5041989;28;20040;-72
2022/08/30 11:06:06;;;;;;;5.93;3.25;;;;;;;29.90;40.18;100672.28;5045776;28;20029;-72
2022/08/30 11:08:47;;;;;;;6.13;3.28;;;;;;;30.03;39.93;100677.06;5029429;28;20029;-72
2022/08/30 11:11:33;;;;;;;6.78;3.38;;;;;;;30.19;40.17;100669.94;5054096;28;20393;-72
2022/08/30 11:14:03;;;;;;;6.82;3.33;;;;;;;30.37;39.95;100670.59;5037560;28;20446;-72
2022/08/30 11:16:34;;;;;;;5.72;3.40;;;;;;;30.37;39.69;100670.59;5021273;28;20033;-72
2022/08/30 11:18:59;;;;;;;6.03;3.13;;;;;;;30.39;39.82;100675.88;5020039;28;20098;-72
2022/08/30 11:21:36;;;;;;;6.57;3.10;;;;;;;30.53;39.96;100669.19;5026927;28;20390;-72
2022/08/30 11:24:15;;;;;;;8.80;3.33;;;;;;;30.53;39.70;100667.13;5060135;28;20033;-72
2022/08/30 11:26:43;;;;;;;9.13;3.10;;;;;;;30.59;38.92;100674.03;5015146;28;20488;-72
2022/08/30 11:29:09;;;;;;;5.22;3.20;;;;;;;30.54;39.32;100673.69;5052832;28;20091;-72
2022/08/30 11:31:39;;;;;;;6.05;2.95;;;;;;;30.62;38.75;100664.56;5028245;28;20029;-72
2022/08/30 11:34:05;;;;;;;5.53;3.13;;;;;;;30.75;38.97;100667.66;5029300;28;20539;-72
2022/08/30 11:36:40;;;;;;;4.63;3.40;;;;;;;30.79;38.91;100664.78;5046020;28;20036;-72